createdAt,value
2022-08-26T00:03:02.093Z,24.96
2022-08-26T00:08:04.232Z,24.92
2022-08-26T00:13:06.982Z,24.85
2022-08-26T00:18:16.759Z,24.82
2022-08-26T00:23:24.454Z,24.83
2022-08-26T00:28:26.132Z,24.81
2022-08-26T00:33:27.471Z,24.81
2022-08-26T00:38:28.914Z,24.77
2022-08-26T00:43:46.199Z,24.71
2022-08-26T00:48:53.875Z,24.66
2022-08-26T00:54:01.954Z,24.63
2022-08-26T00:59:08.270Z,24.59
2022-08-26T01:04:11.731Z,24.52
2022-08-26T01:09:13.282Z,24.54
2022-08-26T01:14:16.911Z,24.53
2022-08-26T01:19:37.430Z,24.51
2022-08-26T01:24:41.611Z,24.46
2022-08-26T01:29:45.185Z,24.43
2022-08-26T01:34:48.225Z,24.38
2022-08-26T01:39:52.117Z,24.33
2022-08-26T01:45:05.229Z,24.25
2022-08-26T01:50:11.201Z,24.27
2022-08-26T01:55:15.198Z,24.24
2022-08-26T02:00:35.622Z,24.29
2022-08-26T02:05:37.512Z,24.28
2022-08-26T02:10:38.892Z,24.27
2022-08-26T02:15:44.346Z,24.26
2022-08-26T02:20:46.306Z,24.20
2022-08-26T02:26:03.455Z,24.19
2022-08-26T02:31:05.205Z,24.12
2022-08-26T02:36:09.409Z,24.09
2022-08-26T02:41:13.701Z,24.09
2022-08-26T02:46:21.583Z,24.08
2022-08-26T02:51:31.254Z,24.09
2022-08-26T02:56:35.311Z,24.08
2022-08-26T03:01:37.734Z,24.08
2022-08-26T03:06:40.737Z,24.09
2022-08-26T03:11:42.909Z,24.10
2022-08-26T03:16:45.026Z,24.03
2022-08-26T03:21:50.464Z,24.05
2022-08-26T03:26:53.821Z,24.07
2022-08-26T03:31:55.546Z,24.08
2022-08-26T03:36:56.891Z,24.09
2022-08-26T03:41:58.801Z,24.02
2022-08-26T03:47:00.154Z,23.98
2022-08-26T03:52:03.313Z,23.91
2022-08-26T03:57:05.180Z,23.88
2022-08-26T04:02:11.337Z,23.89
2022-08-26T04:07:13.137Z,23.93
2022-08-26T04:12:14.433Z,23.99
2022-08-26T04:17:15.804Z,24.00
2022-08-26T04:22:24.818Z,24.00
2022-08-26T04:27:26.448Z,23.98
2022-08-26T04:32:28.481Z,23.98
2022-08-26T04:37:31.150Z,23.96
2022-08-26T04:42:34.267Z,23.98
2022-08-26T04:47:35.636Z,23.98
2022-08-26T04:52:37.264Z,23.99
2022-08-26T04:57:38.730Z,24.05
2022-08-26T05:02:41.105Z,24.00
2022-08-26T05:07:44.551Z,23.94
2022-08-26T05:12:45.950Z,23.93
2022-08-26T05:17:47.692Z,23.90
2022-08-26T05:22:49.266Z,23.96
2022-08-26T05:27:52.909Z,23.98
2022-08-26T05:32:55.478Z,23.92
2022-08-26T05:37:56.831Z,23.94
2022-08-26T05:43:00.171Z,23.91
2022-08-26T05:48:03.876Z,23.87
2022-08-26T05:53:09.251Z,23.85
2022-08-26T05:58:11.986Z,23.75
2022-08-26T06:03:13.366Z,23.71
2022-08-26T06:08:14.787Z,23.71
2022-08-26T06:13:18.262Z,23.71
2022-08-26T06:18:36.238Z,23.68
2022-08-26T06:23:56.319Z,23.74
2022-08-26T06:28:58.554Z,23.79
2022-08-26T06:34:01.290Z,23.79
2022-08-26T06:39:06.097Z,23.78
2022-08-26T06:44:07.798Z,23.87
2022-08-26T06:49:10.069Z,23.89
2022-08-26T06:54:11.773Z,24.00
2022-08-26T06:59:13.133Z,24.12
2022-08-26T07:04:22.106Z,24.20
2022-08-26T07:09:27.846Z,24.42
2022-08-26T07:14:29.221Z,24.62
2022-08-26T07:19:31.744Z,24.88
2022-08-26T07:24:35.496Z,25.17
2022-08-26T07:29:39.320Z,25.45
2022-08-26T07:34:42.200Z,25.79
2022-08-26T07:39:44.221Z,26.14
2022-08-26T07:44:45.873Z,26.51
2022-08-26T07:49:47.189Z,26.80
2022-08-26T07:54:58.721Z,27.09
2022-08-26T08:00:00.918Z,27.52
2022-08-26T08:05:02.322Z,27.80
2022-08-26T08:10:09.617Z,28.06
2022-08-26T08:15:13.835Z,28.36
2022-08-26T08:20:15.285Z,28.67
2022-08-26T08:25:16.634Z,28.87
2022-08-26T08:30:23.019Z,29.09
2022-08-26T08:35:26.265Z,29.38
2022-08-26T08:40:27.904Z,29.66
2022-08-26T08:45:37.115Z,29.91
2022-08-26T08:50:48.970Z,29.95
2022-08-26T08:55:59.129Z,29.94
2022-08-26T09:01:04.674Z,29.95
2022-08-26T09:06:17.359Z,30.14
2022-08-26T09:11:20.378Z,30.49
2022-08-26T09:16:32.011Z,30.83
2022-08-26T09:21:33.749Z,30.85
2022-08-26T09:26:45.820Z,30.72
2022-08-26T09:31:48.870Z,30.76
2022-08-26T09:36:58.280Z,30.88
2022-08-26T09:42:22.307Z,30.90
2022-08-26T09:47:31.827Z,30.95
2022-08-26T09:52:33.413Z,31.10
2022-08-26T09:57:43.838Z,31.34
2022-08-26T10:02:47.770Z,31.24
2022-08-26T10:07:50.864Z,31.92
2022-08-26T10:13:04.865Z,32.89
2022-08-26T10:18:14.166Z,33.60
2022-08-26T10:23:21.438Z,34.30
2022-08-26T10:28:44.282Z,35.57
2022-08-26T10:33:45.950Z,34.76
2022-08-26T10:38:48.380Z,34.08
2022-08-26T10:43:58.801Z,34.04
2022-08-26T10:49:06.519Z,35.11
2022-08-26T10:54:21.469Z,39.46
2022-08-26T10:59:50.707Z,38.59
2022-08-26T11:05:14.630Z,35.68
2022-08-26T11:10:16.460Z,37.75
2022-08-26T11:15:24.697Z,36.61
2022-08-26T11:20:45.872Z,37.39
2022-08-26T11:26:16.473Z,34.67
2022-08-26T11:31:39.274Z,33.81
2022-08-26T11:36:42.973Z,32.80
2022-08-26T11:41:47.130Z,32.12
2022-08-26T11:46:53.880Z,32.03
2022-08-26T11:52:20.889Z,31.87
2022-08-26T11:57:22.868Z,31.02
2022-08-26T12:02:25.106Z,30.89
2022-08-26T12:07:29.339Z,30.47
2022-08-26T12:12:40.262Z,30.44
2022-08-26T12:17:42.603Z,30.47
2022-08-26T12:22:48.089Z,30.59
2022-08-26T12:27:53.752Z,30.73
2022-08-26T12:33:22.288Z,31.10
2022-08-26T12:38:26.830Z,31.36
2022-08-26T12:43:37.459Z,31.36
2022-08-26T12:48:42.501Z,31.32
2022-08-26T12:53:44.125Z,31.63
2022-08-26T12:58:59.440Z,31.65
2022-08-26T13:04:00.761Z,31.66
2022-08-26T13:09:24.859Z,31.78
2022-08-26T13:14:26.213Z,32.07
2022-08-26T13:19:28.002Z,32.42
2022-08-26T13:24:38.486Z,32.83
2022-08-26T13:29:40.229Z,33.10
2022-08-26T13:34:42.367Z,33.12
2022-08-26T13:39:43.796Z,33.11
2022-08-26T13:44:45.216Z,33.25
2022-08-26T13:49:46.824Z,33.51
2022-08-26T13:54:48.588Z,33.74
2022-08-26T13:59:51.704Z,33.27
2022-08-26T14:04:54.706Z,32.74
2022-08-26T14:09:56.290Z,32.03
2022-08-26T14:14:57.645Z,31.58
2022-08-26T14:19:59.178Z,31.16
2022-08-26T14:25:00.809Z,30.83
2022-08-26T14:30:05.163Z,30.75
2022-08-26T14:35:17.823Z,30.38
2022-08-26T14:40:22.033Z,30.18
2022-08-26T14:45:26.221Z,30.10
2022-08-26T14:50:27.830Z,29.88
2022-08-26T14:55:32.299Z,29.83
2022-08-26T15:00:39.946Z,29.77
2022-08-26T15:05:48.000Z,29.73
2022-08-26T15:10:50.697Z,29.83
2022-08-26T15:15:52.089Z,29.60
2022-08-26T15:20:53.516Z,29.65
2022-08-26T15:25:54.905Z,29.74
2022-08-26T15:31:08.163Z,29.41
2022-08-26T15:36:10.607Z,29.51
2022-08-26T15:41:12.302Z,29.55
2022-08-26T15:46:13.847Z,29.46
2022-08-26T15:51:33.851Z,29.35
2022-08-26T15:56:37.382Z,29.38
2022-08-26T16:01:40.336Z,29.64
2022-08-26T16:06:43.242Z,29.74
2022-08-26T16:11:44.601Z,29.41
2022-08-26T16:16:47.019Z,29.49
2022-08-26T16:21:50.629Z,29.42
2022-08-26T16:26:52.054Z,29.29
2022-08-26T16:31:54.524Z,29.04
2022-08-26T16:36:55.871Z,29.00
2022-08-26T16:41:57.200Z,28.93
2022-08-26T16:46:58.911Z,28.89
2022-08-26T16:52:00.268Z,28.72
2022-08-26T16:57:02.086Z,28.63
2022-08-26T17:02:03.836Z,28.59
2022-08-26T17:07:05.861Z,28.52
2022-08-26T17:12:07.496Z,28.43
2022-08-26T17:17:08.902Z,28.34
2022-08-26T17:22:10.981Z,28.21
2022-08-26T17:27:12.367Z,28.08
2022-08-26T17:32:13.723Z,27.97
2022-08-26T17:37:15.071Z,27.58
2022-08-26T17:42:18.725Z,27.42
2022-08-26T17:47:20.111Z,27.46
2022-08-26T17:52:21.497Z,27.25
2022-08-26T17:57:23.792Z,27.15
2022-08-26T18:02:25.176Z,27.02
2022-08-26T18:07:26.603Z,26.96
2022-08-26T18:12:27.980Z,26.90
2022-08-26T18:17:30.125Z,26.73
2022-08-26T18:22:31.429Z,26.74
2022-08-26T18:27:33.034Z,26.69
2022-08-26T18:32:35.318Z,26.62
2022-08-26T18:37:37.408Z,26.52
2022-08-26T18:42:53.947Z,26.23
2022-08-26T18:47:55.654Z,25.96
2022-08-26T18:52:57.034Z,25.84
2022-08-26T18:57:58.554Z,25.87
2022-08-26T19:02:59.935Z,25.95
2022-08-26T19:08:02.342Z,25.78
2022-08-26T19:13:04.957Z,25.65
2022-08-26T19:18:09.706Z,25.63
2022-08-26T19:23:30.378Z,25.48
2022-08-26T19:28:33.322Z,25.39
2022-08-26T19:33:34.639Z,25.43
2022-08-26T19:38:36.037Z,25.43
2022-08-26T19:43:40.013Z,25.44
2022-08-26T19:48:45.650Z,25.44
2022-08-26T19:53:49.510Z,25.49
2022-08-26T19:59:00.546Z,25.41
2022-08-26T20:04:04.241Z,25.27
2022-08-26T20:09:05.559Z,25.21
2022-08-26T20:14:11.374Z,25.17
2022-08-26T20:19:37.488Z,25.21
2022-08-26T20:24:39.183Z,25.17
2022-08-26T20:29:43.272Z,25.20
2022-08-26T20:34:45.697Z,25.20
2022-08-26T20:39:48.169Z,25.21
2022-08-26T20:44:55.124Z,25.17
2022-08-26T20:49:56.575Z,25.10
2022-08-26T20:55:06.145Z,25.16
2022-08-26T21:00:08.082Z,25.13
2022-08-26T21:05:10.470Z,24.95
2022-08-26T21:10:12.488Z,25.03
2022-08-26T21:15:14.274Z,24.96
2022-08-26T21:20:18.524Z,24.78
2022-08-26T21:25:22.727Z,24.85
2022-08-26T21:30:24.058Z,24.93
2022-08-26T21:35:25.364Z,24.87
2022-08-26T21:40:27.896Z,24.87
2022-08-26T21:45:29.367Z,24.81
2022-08-26T21:50:30.730Z,24.75
2022-08-26T21:55:35.606Z,24.73
2022-08-26T22:00:36.915Z,24.65
2022-08-26T22:05:45.934Z,24.69
2022-08-26T22:10:52.620Z,24.57
2022-08-26T22:15:54.283Z,24.45
2022-08-26T22:20:58.071Z,24.32
2022-08-26T22:25:59.925Z,24.17
2022-08-26T22:31:01.872Z,24.06
2022-08-26T22:36:03.362Z,24.03
2022-08-26T22:41:08.430Z,24.19
2022-08-26T22:46:10.584Z,23.99
2022-08-26T22:51:12.220Z,24.06
2022-08-26T22:56:14.402Z,24.09
2022-08-26T23:01:16.869Z,24.06
2022-08-26T23:06:18.366Z,24.13
2022-08-26T23:11:19.661Z,24.05
2022-08-26T23:16:21.209Z,24.07
2022-08-26T23:21:22.588Z,23.97
2022-08-26T23:26:24.005Z,23.97
2022-08-26T23:31:25.440Z,23.97
2022-08-26T23:36:26.813Z,23.81
2022-08-26T23:41:28.276Z,23.89
2022-08-26T23:46:29.622Z,23.95
2022-08-26T23:51:50.082Z,23.99
2022-08-26T23:56:51.415Z,23.98
